Data for 05/26/2014

Time Sea-Level Adjusted Pressure Absolute Pressure Temperature Relative Humidity Dew Point   
(mb) (inHg) (mb) (inHg) (C) (F) (%) (C) (F)
00:05 1016 30 846 24.98 14.5 58.1 63 7.6 45.6
00:10 1016 30 846 24.98 14.4 58 63 7.7 45.8
00:15 1016 30 846 24.98 14.5 58 64 7.8 46.1
00:20 1016 30 846 24.98 14.3 57.7 64 7.5 45.5
00:25 1016 30 846 24.98 14.2 57.6 63 7.4 45.4
00:30 1016 30 846 24.98 14.2 57.6 64 7.5 45.5
00:35 1016 30 846 24.98 14.2 57.6 63 7.4 45.4
00:40 1016 30 846 24.98 14.3 57.7 63 7.4 45.4
00:45 1017 30.03 846 24.98 14.4 57.9 62 7.2 45
00:50 1017 30.03 846 24.98 14.4 57.8 61 7 44.7
00:55 1017 30.03 846 24.98 14.2 57.5 59 6.4 43.6
01:00 1017 30.03 846 24.98 13.9 57.1 59 6.1 42.9
01:05 1017 30.03 846 24.98 14.2 57.5 58 6.1 43.1
01:10 1017 30.03 846 24.98 14.1 57.4 59 6.3 43.3
01:15 1017 30.03 846 24.98 14.2 57.6 58 6.2 43.1
01:20 1017 30.03 846 24.98 14.1 57.3 58 6.1 43
01:25 1017 30.03 846 24.98 13.9 57 60 6.3 43.3
01:30 1017 30.03 846 24.98 13.1 55.6 63 6.2 43.2
01:35 1017 30.03 846 24.98 12.7 54.9 62 5.6 42.2
01:40 1017 30.03 846 24.98 12.5 54.5 63 5.7 42.3
01:45 1017 30.03 846 24.98 12.3 54.2 64 5.7 42.3
01:50 1017 30.03 846 24.98 12.3 54.1 65 5.9 42.6
01:55 1017 30.03 846 24.98 12.1 53.8 65 5.7 42.3
02:00 1017 30.03 846 24.98 12.1 53.8 64 5.6 42
02:05 1017 30.03 846 24.98 12.3 54.2 63 5.5 41.8
02:10 1017 30.03 846 24.98 12.4 54.3 62 5.3 41.6
02:15 1017 30.03 846 24.98 12.5 54.5 61 5.2 41.3
02:20 1017 30.03 846 24.98 12.5 54.5 61 5.3 41.6
02:25 1017 30.03 846 24.98 12.1 53.9 65 5.9 42.6
02:30 1017 30.03 846 24.98 11.5 52.7 67 5.6 42.2
02:35 1017 30.03 846 24.98 11.3 52.3 67 5.5 41.8
02:40 1017 30.03 846 24.98 11.3 52.3 67 5.5 41.9
02:45 1017 30.03 846 24.98 11.2 52.1 68 5.5 42
02:50 1017 30.03 846 24.98 11.2 52.2 67 5.4 41.7
02:55 1017 30.03 846 24.98 11.7 53 65 5.4 41.7
03:00 1017 30.03 846 24.98 11.8 53.2 64 5.3 41.5
03:05 1017 30.03 846 24.98 11.7 53 64 5.3 41.5
03:10 1017 30.03 846 24.98 11.6 52.9 65 5.2 41.4
03:15 1017 30.03 846 24.98 11.7 53 65 5.3 41.5
03:20 1017 30.03 846 24.98 11.7 53 64 5.1 41.2
03:25 1017 30.03 846 24.98 11.5 52.8 64 5 41
03:30 1017 30.03 846 24.98 11.7 53 63 4.8 40.7
03:35 1017 30.03 846 24.98 11.8 53.3 62 4.7 40.5
03:40 1017 30.03 846 24.98 11.8 53.3 62 4.9 40.9
03:45 1017 30.03 846 24.98 11.9 53.5 62 4.9 40.8
03:50 1017 30.03 846 24.98 12 53.7 61 4.8 40.7
03:55 1017 30.03 846 24.98 12 53.7 62 5.1 41.2
04:00 1017 30.03 846 24.98 11.9 53.5 63 5.1 41.1
04:05 1017 30.03 846 24.98 12 53.6 62 5 41
04:10 1017 30.03 846 24.98 12 53.6 62 5.1 41.1
04:15 1017 30.03 846 24.98 12.2 54 61 4.9 40.9
04:20 1017 30.03 846 24.98 12.3 54.2 60 4.9 40.8
04:25 1017 30.03 846 24.98 12.1 53.8 61 4.9 40.8
04:30 1017 30.03 846 24.98 11.9 53.4 62 5 41
04:35 1017 30.03 846 24.98 11.5 52.8 65 5.3 41.5
04:40 1017 30.03 846 24.98 11.5 52.7 64 5 41
04:45 1017 30.03 846 24.98 11.6 52.8 63 4.9 40.8
04:50 1017 30.03 846 24.98 11.6 52.9 64 5 41
04:55 1017 30.03 846 24.98 11.6 52.8 64 4.9 40.9
05:00 1017 30.03 846 24.98 11.4 52.4 64 4.9 40.8
05:05 1017 30.03 847 25.01 11.3 52.4 64 4.8 40.6
05:10 1017 30.03 847 25.01 11.5 52.7 64 5 41
05:15 1017 30.03 847 25.01 11.4 52.6 65 5.1 41.1
05:20 1017 30.03 847 25.01 11.4 52.5 64 4.9 40.9
05:25 1017 30.03 847 25.01 11.6 52.9 64 5 40.9
05:30 1017 30.03 847 25.01 11.8 53.2 62 4.9 40.7
05:35 1017 30.03 847 25.01 11.9 53.4 62 4.9 40.8
05:40 1017 30.03 847 25.01 12 53.6 61 4.8 40.6
05:45 1017 30.03 847 25.01 12 53.6 61 4.8 40.6
05:50 1017 30.03 847 25.01 12 53.6 61 4.8 40.6
05:55 1017 30.03 847 25.01 12.1 53.8 60 4.6 40.4
06:00 1017 30.03 847 25.01 12.3 54.1 59 4.7 40.4
06:05 1017 30.03 847 25.01 12.2 53.9 61 4.8 40.7
06:10 1017 30.03 847 25.01 12.1 53.8 61 4.8 40.7
06:15 1017 30.03 847 25.01 12.1 53.9 61 4.9 40.7
06:20 1017 30.03 847 25.01 12.4 54.4 61 5.1 41.1
06:25 1017 30.03 847 25.01 12.8 55 61 5.5 41.9
06:30 1017 30.03 847 25.01 13.1 55.6 60 5.6 42.1
06:35 1017 30.03 847 25.01 13.4 56.2 59 5.7 42.3
06:40 1017 30.03 847 25.01 13.7 56.7 58 5.8 42.4
06:45 1017 30.03 847 25.01 14 57.1 58 5.8 42.4
06:50 1017 30.03 847 25.01 14.4 57.9 57 6.2 43.1
06:55 1017 30.03 847 25.01 14.6 58.2 56 5.9 42.6
07:00 1017 30.03 847 25.01 14.9 58.7 55 6.1 42.9
07:05 1017 30.03 847 25.01 15.1 59.2 55 6.2 43.1
07:10 1017 30.03 847 25.01 15.5 59.9 52 5.8 42.5
07:15 1017 30.03 847 25.01 15.9 60.5 51 5.9 42.7
07:20 1018 30.06 847 25.01 16.1 60.9 52 6.4 43.4
07:25 1018 30.06 847 25.01 16.2 61.2 50 5.9 42.6
07:30 1018 30.06 847 25.01 17 62.5 48 6.1 42.9
07:35 1018 30.06 847 25.01 17.7 63.8 49 6.9 44.4
07:40 1018 30.06 847 25.01 18 64.3 46 6.4 43.6
07:45 1018 30.06 847 25.01 18.5 65.2 44 6.1 43
07:50 1018 30.06 847 25.01 19 66.1 42 6 42.7
07:55 1018 30.06 847 25.01 18.9 66.1 43 6.3 43.4
08:00 1018 30.06 847 25.01 19.6 67.2 38 5 41.1
08:05 1018 30.06 847 25.01 19.7 67.5 38 5 41
08:10 1018 30.06 847 25.01 19.7 67.4 39 5.6 42.1
08:15 1018 30.06 847 25.01 19.4 66.8 39 5.1 41.3
08:20 1018 30.06 847 25.01 19.4 67 39 5.2 41.3
08:25 1018 30.06 847 25.01 19.7 67.5 39 5.7 42.2
08:30 1018 30.06 847 25.01 19.6 67.3 39 5.2 41.4
08:35 1018 30.06 847 25.01 20.3 68.5 35 4.4 40
08:40 1018 30.06 847 25.01 21.3 70.3 33 4.5 40.1
08:45 1018 30.06 847 25.01 21.1 69.9 35 5.1 41.2
08:50 1018 30.06 847 25.01 20.8 69.4 34 4.4 39.9
08:55 1018 30.06 847 25.01 21.2 70.2 34 4.9 40.8
09:00 1018 30.06 847 25.01 21.2 70.1 33 4.6 40.3
09:05 1017 30.03 847 25.01 21.9 71.4 33 4.9 40.8
09:10 1017 30.03 847 25.01 20.9 69.6 36 5.6 42.1
09:15 1017 30.03 847 25.01 21.1 69.9 35 5.1 41.1
09:20 1017 30.03 847 25.01 21.1 70 39 6.6 43.9
09:25 1017 30.03 846 24.98 20.4 68.7 36 5.1 41.3
09:30 1017 30.03 846 24.98 21.3 70.3 36 6 42.7
09:35 1017 30.03 846 24.98 21.7 71 36 6.2 43.1
09:40 1017 30.03 846 24.98 21.5 70.6 35 5.6 42.1
09:45 1017 30.03 846 24.98 21.9 71.4 31 4.2 39.5
09:50 1017 30.03 846 24.98 22.4 72.3 29 3.8 38.9
09:55 1017 30.03 846 24.98 22.8 73.1 29 3.9 39
10:00 1017 30.03 846 24.98 23.7 74.6 26 3.4 38.1
10:05 1017 30.03 846 24.98 24.6 76.2 24 2.9 37.3
10:10 1017 30.03 846 24.98 25.1 77.1 21 1.4 34.5
10:15 1017 30.03 846 24.98 24.9 76.8 21 1.2 34.2
10:20 1017 30.03 846 24.98 24.9 76.7 23 2.6 36.7
10:25 1017 30.03 846 24.98 24.5 76.2 24 2.9 37.2
10:30 1017 30.03 846 24.98 24.5 76.2 24 2.7 36.8
10:35 1017 30.03 846 24.98 24.6 76.3 22 2 35.5
10:40 1017 30.03 846 24.98 24.5 76.1 21 1.2 34.1
10:45 1017 30.03 846 24.98 24.3 75.8 21 0.6 33.1
10:50 1017 30.03 846 24.98 24.5 76 23 2.3 36.1
10:55 1017 30.03 846 24.98 25.4 77.6 20 1.1 34
11:00 1017 30.03 846 24.98 25.6 78.1 20 1.2 34.2
11:05 1017 30.03 846 24.98 25.4 77.7 20 1.2 34.1
11:10 1017 30.03 846 24.98 26.4 79.5 18 0.5 32.8
11:15 1016 30 846 24.98 26.3 79.3 18 0.7 33.2
11:20 1016 30 846 24.98 25.5 78 19 0.7 33.3
11:25 1016 30 846 24.98 26 78.8 18 0.3 32.6
11:30 1016 30 846 24.98 25.9 78.7 19 0.9 33.6
11:35 1016 30 845 24.95 26 78.8 18 -0.1 31.8
11:40 1016 30 845 24.95 25.6 78.1 19 0.8 33.5
11:45 1016 30 845 24.95 25.1 77.2 21 1.2 34.2
11:50 1016 30 845 24.95 25.6 78.1 21 1.8 35.3
11:55 1016 30 845 24.95 25.9 78.6 20 1.3 34.3
12:00 1016 30 845 24.95 25.2 77.4 21 1.8 35.3
12:05 1016 30 845 24.95 25.4 77.7 19 0.7 33.2
12:10 1016 30 845 24.95 26.6 79.9 20 1.9 35.5
12:15 1016 30 845 24.95 26.3 79.3 19 1.2 34.1
12:20 1016 30 845 24.95 26.8 80.2 19 1.5 34.8
12:25 1016 30 845 24.95 26.1 79 21 2.4 36.3
12:30 1016 30 845 24.95 26 78.7 20 1.6 34.9
12:35 1016 30 845 24.95 26.2 79.2 21 2.3 36.1
12:40 1016 30 845 24.95 26.4 79.6 21 2.9 37.3
12:45 1016 30 845 24.95 25.9 78.6 22 2.7 36.9
12:50 1016 30 845 24.95 26.4 79.6 21 2.5 36.6
12:55 1016 30 845 24.95 26 78.8 22 3 37.5
13:00 1016 30 845 24.95 24.9 76.7 22 2.1 35.9
13:05 1016 30 845 24.95 25.3 77.6 23 3.1 37.6
13:10 1016 30 845 24.95 25.5 77.8 23 2.8 37.1
13:15 1016 30 845 24.95 25.8 78.5 24 4.1 39.3
13:20 1016 30 845 24.95 25.4 77.7 24 3.4 38.2
13:25 1016 30 845 24.95 24.6 76.3 24 3.2 37.8
13:30 1016 30 845 24.95 25.6 78 23 3.3 37.9
13:35 1016 30 845 24.95 26 78.7 23 3.6 38.5
13:40 1016 30 845 24.95 25.9 78.7 22 2.9 37.3
13:45 1016 30 845 24.95 25.7 78.2 22 2.9 37.2
13:50 1016 30 845 24.95 26 78.7 22 3 37.4
13:55 1016 30 845 24.95 25.9 78.6 22 3 37.3
14:00 1016 30 845 24.95 25.5 77.9 23 3 37.4
14:05 1016 30 845 24.95 25.9 78.6 23 3.6 38.4
14:10 1016 30 845 24.95 26 78.8 23 3.3 38
14:15 1016 30 845 24.95 26.2 79.1 23 3.4 38.2
14:20 1016 30 845 24.95 26.2 79.2 23 3.5 38.3
14:25 1016 30 845 24.95 26 78.8 23 3.3 38
14:30 1016 30 845 24.95 25.7 78.3 22 2.9 37.2
14:35 1016 30 845 24.95 26 78.9 22 3.2 37.7
14:40 1015 29.97 845 24.95 25.2 77.3 22 2.4 36.2
14:45 1015 29.97 845 24.95 25.2 77.4 23 2.7 36.8
14:50 1015 29.97 845 24.95 26.6 79.8 20 1.8 35.2
14:55 1015 29.97 845 24.95 26.5 79.6 21 2.9 37.2
15:00 1015 29.97 845 24.95 25.9 78.6 20 1.3 34.3
15:05 1015 29.97 845 24.95 25.3 77.5 22 2.4 36.3
15:10 1015 29.97 845 24.95 24.3 75.8 23 2 35.5
15:15 1016 30 845 24.95 24.7 76.5 22 2 35.6
15:20 1015 29.97 845 24.95 24.4 75.9 24 2.7 36.9
15:25 1015 29.97 845 24.95 24.7 76.5 22 1.8 35.2
15:30 1016 30 845 24.95 24.7 76.4 23 2.3 36.1
15:35 1016 30 845 24.95 24.1 75.4 25 3.1 37.6
15:40 1016 30 845 24.95 24 75.3 27 3.9 39.1
15:45 1016 30 845 24.95 23.3 74 26 2.8 37.1
15:50 1016 30 845 24.95 22 71.6 27 2.2 35.9
15:55 1016 30 845 24.95 21.5 70.6 28 2.3 36.1
16:00 1016 30 845 24.95 21.5 70.7 26 1.2 34.2
16:05 1016 30 845 24.95 21.8 71.2 21 -1.1 30
16:10 1016 30 845 24.95 22.4 72.4 24 1.1 34.1
16:15 1016 30 845 24.95 21.9 71.3 27 2.1 35.8
16:20 1016 30 845 24.95 21.4 70.6 28 2.4 36.3
16:25 1016 30 845 24.95 21.2 70.1 30 3 37.4
16:30 1016 30 845 24.95 20.9 69.6 31 3.3 37.9
16:35 1016 30 845 24.95 20.9 69.6 31 3.4 38.1
16:40 1016 30 845 24.95 21.1 69.9 30 3.2 37.7
16:45 1016 30 845 24.95 21.3 70.3 31 3.7 38.6
16:50 1016 30 845 24.95 21.3 70.4 31 3.7 38.6
16:55 1016 30 845 24.95 21.2 70.2 24 0.2 32.4
17:00 1016 30 845 24.95 21.5 70.6 27 1.8 35.2
17:05 1016 30 845 24.95 21.9 71.4 26 1.6 34.8
17:10 1016 30 845 24.95 22.1 71.8 26 2 35.6
17:15 1016 30 845 24.95 21.5 70.7 30 3.3 38
17:20 1016 30 845 24.95 20.9 69.5 32 3.7 38.6
17:25 1016 30 845 24.95 20.4 68.8 33 3.6 38.4
17:30 1016 30 845 24.95 20.5 69 34 4.5 40
17:35 1016 30 845 24.95 20.3 68.5 31 2.8 37.1
17:40 1016 30 845 24.95 21 69.7 30 2.7 36.8
17:45 1016 30 845 24.95 20.7 69.2 32 3.7 38.6
17:50 1016 30 845 24.95 20.7 69.2 32 3.5 38.3
17:55 1015 29.97 845 24.95 21.1 69.9 32 3.7 38.7
18:00 1015 29.97 845 24.95 21.3 70.4 29 2.9 37.3
18:05 1015 29.97 845 24.95 21.1 70 31 3.5 38.3
18:10 1015 29.97 844 24.92 21.1 70 30 3.1 37.6
18:15 1015 29.97 845 24.95 21.3 70.3 30 3 37.4
18:20 1015 29.97 844 24.92 21.5 70.6 29 2.9 37.3
18:25 1015 29.97 844 24.92 21.6 70.9 29 3.1 37.6
18:30 1015 29.97 844 24.92 21.6 70.9 29 3.2 37.8
18:35 1015 29.97 844 24.92 21.6 70.9 30 3.5 38.3
18:40 1015 29.97 844 24.92 21.6 70.9 29 3.2 37.8
18:45 1015 29.97 844 24.92 21.5 70.8 29 3.1 37.5
18:50 1015 29.97 844 24.92 21.6 70.8 29 2.9 37.2
18:55 1015 29.97 844 24.92 21.5 70.7 29 2.7 36.8
19:00 1015 29.97 844 24.92 21.5 70.7 28 2.5 36.6
19:05 1015 29.97 844 24.92 21.6 70.8 28 2.7 36.8
19:10 1015 29.97 844 24.92 21.7 71.1 28 2.4 36.4
19:15 1015 29.97 844 24.92 22 71.6 25 1.2 34.1
19:20 1015 29.97 844 24.92 22.1 71.8 26 2 35.7
19:25 1015 29.97 844 24.92 22 71.6 26 1.7 35.1
19:30 1015 29.97 844 24.92 21.9 71.5 25 1.3 34.3
19:35 1015 29.97 844 24.92 21.8 71.3 28 2.7 36.8
19:40 1015 29.97 844 24.92 21.4 70.5 31 3.9 39
19:45 1015 29.97 844 24.92 21.2 70.2 30 3.2 37.8
19:50 1015 29.97 845 24.95 21 69.9 29 2.5 36.5
19:55 1016 30 845 24.95 20.9 69.6 30 2.7 36.9
20:00 1016 30 845 24.95 21.1 69.9 25 0.6 33
20:05 1016 30 845 24.95 21.3 70.4 27 2 35.6
20:10 1016 30 845 24.95 21 69.8 28 2 35.7
20:15 1016 30 845 24.95 20.7 69.3 29 2.3 36.2
20:20 1016 30 845 24.95 20.6 69 31 2.8 37
20:25 1016 30 845 24.95 20.1 68.1 32 3.3 37.9
20:30 1016 30 845 24.95 19.8 67.7 34 3.5 38.3
20:35 1016 30 845 24.95 19.4 67 37 4.6 40.4
20:40 1016 30 845 24.95 18.7 65.6 40 5.1 41.2
20:45 1016 30 846 24.98 18 64.5 44 5.6 42
20:50 1017 30.03 846 24.98 17.5 63.5 46 5.9 42.6
20:55 1017 30.03 846 24.98 17.1 62.7 47 5.9 42.6
21:00 1017 30.03 846 24.98 16.8 62.2 48 5.9 42.6
21:05 1017 30.03 846 24.98 16.6 61.9 49 6 42.8
21:10 1017 30.03 846 24.98 16.1 60.9 53 6.5 43.7
21:15 1017 30.03 847 25.01 15.4 59.6 54 6.1 43
21:20 1018 30.06 847 25.01 15.2 59.4 52 5.5 41.9
21:25 1018 30.06 847 25.01 15.4 59.8 52 5.6 42.1
21:30 1018 30.06 847 25.01 15.3 59.6 51 5.5 41.9
21:35 1018 30.06 847 25.01 15.4 59.7 51 5.3 41.6
21:40 1018 30.06 847 25.01 15.5 59.8 50 5.2 41.4
21:45 1018 30.06 848 25.04 15.4 59.8 50 5.3 41.5
21:50 1018 30.06 848 25.04 15.3 59.6 50 5.1 41.2
21:55 1018 30.06 848 25.04 15.3 59.5 50 5 41
22:00 1019 30.09 848 25.04 15.4 59.7 49 4.9 40.8
22:05 1019 30.09 848 25.04 15.3 59.5 49 4.8 40.6
22:10 1019 30.09 848 25.04 15.2 59.3 51 5.2 41.3
22:15 1019 30.09 848 25.04 14.7 58.4 53 5.2 41.4
22:20 1019 30.09 848 25.04 14.5 58.1 52 4.9 40.8
22:25 1019 30.09 848 25.04 14.4 58 52 4.9 40.8
22:30 1019 30.09 848 25.04 14.4 57.9 51 4.5 40.1
22:35 1019 30.09 848 25.04 14.6 58.3 51 4.6 40.2
22:40 1019 30.09 848 25.04 14.5 58.2 51 4.7 40.5
22:45 1019 30.09 849 25.07 14.3 57.7 52 4.7 40.5
22:50 1019 30.09 849 25.07 14.1 57.4 53 4.7 40.5
22:55 1019 30.09 849 25.07 14 57.2 52 4.5 40.1
23:00 1020 30.12 849 25.07 14 57.1 52 4.5 40
23:05 1020 30.12 849 25.07 13.9 57 53 4.6 40.3
23:10 1020 30.12 849 25.07 13.6 56.4 55 4.8 40.6
23:15 1020 30.12 849 25.07 13.3 55.9 55 4.5 40.1
23:20 1020 30.12 849 25.07 13.3 55.9 54 4.3 39.7
23:25 1020 30.12 849 25.07 13.5 56.2 53 4.2 39.5
23:30 1020 30.12 849 25.07 13.7 56.6 52 4.1 39.4
23:35 1020 30.12 849 25.07 13.7 56.6 53 4.2 39.6
23:40 1020 30.12 849 25.07 13.4 56.1 55 4.7 40.5
23:45 1020 30.12 849 25.07 13 55.4 56 4.6 40.2
23:50 1020 30.12 849 25.07 12.8 55.1 57 4.5 40.1
23:55 1020 30.12 849 25.07 12.7 54.8 57 4.4 39.9
24:00 1020 30.12 849 25.07 12.7 54.8 56 4.3 39.7